sensor_id;sensor_type;location;lat;lon;timestamp;pressure;altitude;pressure_sealevel;temperature;humidity
2841;BME280;53423;49.224;12.074;2023-04-30T00:00:33;98018.47;;;12.94;58.46
2841;BME280;53423;49.224;12.074;2023-04-30T00:03:02;98021.75;;;13.04;58.77
2841;BME280;53423;49.224;12.074;2023-04-30T00:05:32;98021.66;;;12.81;58.25
2841;BME280;53423;49.224;12.074;2023-04-30T00:07:59;98020.53;;;12.76;59.32
2841;BME280;53423;49.224;12.074;2023-04-30T00:10:28;98023.19;;;12.68;59.37
2841;BME280;53423;49.224;12.074;2023-04-30T00:12:56;98027.88;;;12.88;58.63
2841;BME280;53423;49.224;12.074;2023-04-30T00:15:24;98029.81;;;12.39;60.33
2841;BME280;53423;49.224;12.074;2023-04-30T00:17:51;98024.53;;;12.56;58.96
2841;BME280;53423;49.224;12.074;2023-04-30T00:20:19;98035.34;;;12.69;59.21
2841;BME280;53423;49.224;12.074;2023-04-30T00:22:49;98032.03;;;12.75;58.24
2841;BME280;53423;49.224;12.074;2023-04-30T00:25:17;98033.66;;;12.76;58.88
2841;BME280;53423;49.224;12.074;2023-04-30T00:27:46;98027.34;;;12.46;59.66
2841;BME280;53423;49.224;12.074;2023-04-30T00:30:14;98030.66;;;12.32;60.24
2841;BME280;53423;49.224;12.074;2023-04-30T00:32:42;98028.81;;;12.48;59.24
2841;BME280;53423;49.224;12.074;2023-04-30T00:35:11;98024.56;;;12.31;59.65
2841;BME280;53423;49.224;12.074;2023-04-30T00:37:39;98034.56;;;12.44;59.56
2841;BME280;53423;49.224;12.074;2023-04-30T00:40:09;98032.78;;;12.36;59.44
2841;BME280;53423;49.224;12.074;2023-04-30T00:42:37;98027.66;;;12.51;58.93
2841;BME280;53423;49.224;12.074;2023-04-30T00:45:07;98032.94;;;12.35;59.80
2841;BME280;53423;49.224;12.074;2023-04-30T00:47:35;98029.66;;;12.25;59.83
2841;BME280;53423;49.224;12.074;2023-04-30T00:50:03;98026.72;;;12.36;60.19
2841;BME280;53423;49.224;12.074;2023-04-30T00:52:31;98032.13;;;12.34;60.55
2841;BME280;53423;49.224;12.074;2023-04-30T00:54:59;98032.31;;;12.33;60.00
2841;BME280;53423;49.224;12.074;2023-04-30T00:57:29;98035.94;;;12.08;61.18
2841;BME280;53423;49.224;12.074;2023-04-30T00:59:57;98038.72;;;11.98;61.79
2841;BME280;53423;49.224;12.074;2023-04-30T01:02:26;98038.56;;;12.08;61.43
2841;BME280;53423;49.224;12.074;2023-04-30T01:04:54;98032.66;;;12.14;61.00
2841;BME280;53423;49.224;12.074;2023-04-30T01:07:22;98037.41;;;12.10;60.39
2841;BME280;53423;49.224;12.074;2023-04-30T01:09:53;98047.59;;;11.97;61.76
2841;BME280;53423;49.224;12.074;2023-04-30T01:12:26;98045.97;;;12.04;61.07
2841;BME280;53423;49.224;12.074;2023-04-30T01:15:05;98049.56;;;11.87;61.09
2841;BME280;53423;49.224;12.074;2023-04-30T01:17:39;98054.00;;;11.87;61.40
2841;BME280;53423;49.224;12.074;2023-04-30T01:20:09;98052.34;;;12.26;59.77
2841;BME280;53423;49.224;12.074;2023-04-30T01:22:45;98055.28;;;12.39;60.03
2841;BME280;53423;49.224;12.074;2023-04-30T01:25:34;98061.03;;;12.42;60.08
2841;BME280;53423;49.224;12.074;2023-04-30T01:28:08;98063.84;;;12.33;60.46
2841;BME280;53423;49.224;12.074;2023-04-30T01:30:36;98067.75;;;12.45;59.46
2841;BME280;53423;49.224;12.074;2023-04-30T01:33:06;98065.66;;;12.32;59.77
2841;BME280;53423;49.224;12.074;2023-04-30T01:35:50;98080.28;;;12.03;61.32
2841;BME280;53423;49.224;12.074;2023-04-30T01:38:28;98083.72;;;11.79;61.58
2841;BME280;53423;49.224;12.074;2023-04-30T01:41:07;98073.69;;;11.91;60.99
2841;BME280;53423;49.224;12.074;2023-04-30T01:43:45;98073.38;;;12.18;61.27
2841;BME280;53423;49.224;12.074;2023-04-30T01:46:19;98071.41;;;12.28;60.42
2841;BME280;53423;49.224;12.074;2023-04-30T01:48:54;98078.31;;;12.21;60.38
2841;BME280;53423;49.224;12.074;2023-04-30T01:51:32;98074.81;;;12.36;60.55
2841;BME280;53423;49.224;12.074;2023-04-30T01:54:11;98082.41;;;12.47;60.22
2841;BME280;53423;49.224;12.074;2023-04-30T01:56:49;98089.63;;;12.37;60.52
2841;BME280;53423;49.224;12.074;2023-04-30T01:59:22;98088.97;;;12.43;60.27
2841;BME280;53423;49.224;12.074;2023-04-30T02:01:51;98090.13;;;12.25;60.55
2841;BME280;53423;49.224;12.074;2023-04-30T02:04:19;98088.31;;;12.17;60.69
2841;BME280;53423;49.224;12.074;2023-04-30T02:06:47;98095.22;;;12.26;61.71
2841;BME280;53423;49.224;12.074;2023-04-30T02:09:15;98096.53;;;12.46;59.99
2841;BME280;53423;49.224;12.074;2023-04-30T02:11:43;98092.06;;;12.47;60.87
2841;BME280;53423;49.224;12.074;2023-04-30T02:14:11;98093.75;;;12.48;59.30
2841;BME280;53423;49.224;12.074;2023-04-30T02:16:40;98107.06;;;12.14;61.88
2841;BME280;53423;49.224;12.074;2023-04-30T02:19:09;98100.66;;;12.33;60.97
2841;BME280;53423;49.224;12.074;2023-04-30T02:21:37;98088.63;;;12.38;60.63
2841;BME280;53423;49.224;12.074;2023-04-30T02:24:06;98088.63;;;12.63;60.03
2841;BME280;53423;49.224;12.074;2023-04-30T02:26:33;98096.69;;;12.45;60.25
2841;BME280;53423;49.224;12.074;2023-04-30T02:29:01;98092.75;;;12.41;60.48
2841;BME280;53423;49.224;12.074;2023-04-30T02:31:30;98095.22;;;12.42;60.56
2841;BME280;53423;49.224;12.074;2023-04-30T02:33:59;98092.56;;;12.59;60.18
2841;BME280;53423;49.224;12.074;2023-04-30T02:36:27;98091.91;;;12.65;60.93
2841;BME280;53423;49.224;12.074;2023-04-30T02:38:55;98090.75;;;12.67;60.37
2841;BME280;53423;49.224;12.074;2023-04-30T02:41:23;98097.16;;;12.65;60.58
2841;BME280;53423;49.224;12.074;2023-04-30T02:43:51;98097.50;;;12.62;60.48
2841;BME280;53423;49.224;12.074;2023-04-30T02:46:19;98096.69;;;12.53;61.17
2841;BME280;53423;49.224;12.074;2023-04-30T02:48:47;98100.47;;;12.67;61.06
2841;BME280;53423;49.224;12.074;2023-04-30T02:51:17;98101.59;;;12.64;60.82
2841;BME280;53423;49.224;12.074;2023-04-30T02:53:45;98102.25;;;12.66;60.61
2841;BME280;53423;49.224;12.074;2023-04-30T02:56:13;98095.19;;;12.67;61.53
2841;BME280;53423;49.224;12.074;2023-04-30T02:58:41;98103.09;;;12.42;61.11
2841;BME280;53423;49.224;12.074;2023-04-30T03:01:09;98110.16;;;12.50;61.35
2841;BME280;53423;49.224;12.074;2023-04-30T03:03:36;98105.06;;;12.48;61.83
2841;BME280;53423;49.224;12.074;2023-04-30T03:06:04;98111.31;;;12.47;61.58
2841;BME280;53423;49.224;12.074;2023-04-30T03:08:34;98107.69;;;12.48;61.73
2841;BME280;53423;49.224;12.074;2023-04-30T03:11:02;98112.97;;;12.40;61.15
2841;BME280;53423;49.224;12.074;2023-04-30T03:13:30;98112.94;;;12.48;60.84
2841;BME280;53423;49.224;12.074;2023-04-30T03:15:58;98113.47;;;12.36;61.41
2841;BME280;53423;49.224;12.074;2023-04-30T03:18:26;98102.44;;;12.40;61.20
2841;BME280;53423;49.224;12.074;2023-04-30T03:20:54;98107.53;;;12.34;62.26
2841;BME280;53423;49.224;12.074;2023-04-30T03:23:22;98116.72;;;12.30;61.88
2841;BME280;53423;49.224;12.074;2023-04-30T03:25:52;98113.63;;;12.42;61.18
2841;BME280;53423;49.224;12.074;2023-04-30T03:28:20;98110.16;;;12.42;61.48
2841;BME280;53423;49.224;12.074;2023-04-30T03:30:48;98112.47;;;12.45;61.23
2841;BME280;53423;49.224;12.074;2023-04-30T03:33:16;98106.41;;;12.44;61.80
2841;BME280;53423;49.224;12.074;2023-04-30T03:35:44;98111.81;;;12.43;61.28
2841;BME280;53423;49.224;12.074;2023-04-30T03:38:12;98108.69;;;12.31;61.77
2841;BME280;53423;49.224;12.074;2023-04-30T03:40:40;98107.88;;;12.39;61.50
2841;BME280;53423;49.224;12.074;2023-04-30T03:43:10;98110.50;;;12.47;61.18
2841;BME280;53423;49.224;12.074;2023-04-30T03:45:38;98114.44;;;12.43;61.87
2841;BME280;53423;49.224;12.074;2023-04-30T03:48:06;98108.38;;;12.42;61.00
2841;BME280;53423;49.224;12.074;2023-04-30T03:50:35;98110.84;;;12.36;60.86
2841;BME280;53423;49.224;12.074;2023-04-30T03:53:03;98123.47;;;12.16;61.48
2841;BME280;53423;49.224;12.074;2023-04-30T03:55:31;98114.28;;;12.28;62.04
2841;BME280;53423;49.224;12.074;2023-04-30T03:57:59;98115.91;;;12.21;60.95
2841;BME280;53423;49.224;12.074;2023-04-30T04:00:28;98107.84;;;11.91;62.39
2841;BME280;53423;49.224;12.074;2023-04-30T04:02:57;98113.78;;;12.09;61.95
2841;BME280;53423;49.224;12.074;2023-04-30T04:05:25;98107.34;;;12.11;62.52
2841;BME280;53423;49.224;12.074;2023-04-30T04:07:53;98118.38;;;11.91;63.01
2841;BME280;53423;49.224;12.074;2023-04-30T04:10:21;98119.66;;;11.87;62.81
2841;BME280;53423;49.224;12.074;2023-04-30T04:12:49;98122.66;;;11.58;64.33
2841;BME280;53423;49.224;12.074;2023-04-30T04:15:17;98117.00;;;11.71;64.03
2841;BME280;53423;49.224;12.074;2023-04-30T04:17:46;98116.03;;;11.80;63.59
2841;BME280;53423;49.224;12.074;2023-04-30T04:20:15;98115.03;;;11.73;63.10
2841;BME280;53423;49.224;12.074;2023-04-30T04:22:43;98113.94;;;11.50;64.41
2841;BME280;53423;49.224;12.074;2023-04-30T04:25:11;98121.16;;;11.48;64.16
2841;BME280;53423;49.224;12.074;2023-04-30T04:27:39;98112.06;;;11.68;64.00
2841;BME280;53423;49.224;12.074;2023-04-30T04:30:08;98121.50;;;11.94;62.17
2841;BME280;53423;49.224;12.074;2023-04-30T04:32:36;98116.38;;;11.93;62.88
2841;BME280;53423;49.224;12.074;2023-04-30T04:35:13;98124.97;;;11.61;64.21
2841;BME280;53423;49.224;12.074;2023-04-30T04:37:41;98126.34;;;11.73;63.45
2841;BME280;53423;49.224;12.074;2023-04-30T04:40:09;98130.59;;;11.66;63.47
2841;BME280;53423;49.224;12.074;2023-04-30T04:42:38;98144.47;;;11.84;63.82
2841;BME280;53423;49.224;12.074;2023-04-30T04:45:07;98139.03;;;11.94;62.86
2841;BME280;53423;49.224;12.074;2023-04-30T04:47:35;98134.28;;;11.89;63.29
2841;BME280;53423;49.224;12.074;2023-04-30T04:50:04;98143.81;;;11.90;63.11
2841;BME280;53423;49.224;12.074;2023-04-30T04:52:33;98150.69;;;11.83;63.94
2841;BME280;53423;49.224;12.074;2023-04-30T04:55:01;98149.91;;;11.99;62.48
2841;BME280;53423;49.224;12.074;2023-04-30T04:57:30;98147.38;;;11.81;63.33
2841;BME280;53423;49.224;12.074;2023-04-30T04:59:58;98143.28;;;11.87;63.33
2841;BME280;53423;49.224;12.074;2023-04-30T05:02:26;98143.59;;;11.76;63.92
2841;BME280;53423;49.224;12.074;2023-04-30T05:04:54;98149.66;;;11.76;64.35
2841;BME280;53423;49.224;12.074;2023-04-30T05:07:22;98140.84;;;12.01;62.68
2841;BME280;53423;49.224;12.074;2023-04-30T05:09:51;98145.81;;;12.20;62.92
2841;BME280;53423;49.224;12.074;2023-04-30T05:12:20;98143.19;;;12.28;62.83
2841;BME280;53423;49.224;12.074;2023-04-30T05:14:48;98140.88;;;12.41;62.04
2841;BME280;53423;49.224;12.074;2023-04-30T05:17:16;98146.31;;;12.24;62.71
2841;BME280;53423;49.224;12.074;2023-04-30T05:19:44;98149.72;;;12.00;64.22
2841;BME280;53423;49.224;12.074;2023-04-30T05:22:13;98152.19;;;12.10;64.32
2841;BME280;53423;49.224;12.074;2023-04-30T05:24:41;98148.09;;;12.15;63.54
2841;BME280;53423;49.224;12.074;2023-04-30T05:27:10;98142.03;;;12.55;62.87
2841;BME280;53423;49.224;12.074;2023-04-30T05:29:38;98143.53;;;12.58;62.02
2841;BME280;53423;49.224;12.074;2023-04-30T05:32:06;98137.88;;;13.17;60.60
2841;BME280;53423;49.224;12.074;2023-04-30T05:34:34;98142.22;;;13.40;59.73
2841;BME280;53423;49.224;12.074;2023-04-30T05:37:02;98142.53;;;13.45;59.06
2841;BME280;53423;49.224;12.074;2023-04-30T05:39:30;98147.41;;;13.56;59.34
2841;BME280;53423;49.224;12.074;2023-04-30T05:41:58;98144.06;;;13.32;60.38
2841;BME280;53423;49.224;12.074;2023-04-30T05:44:28;98145.56;;;13.65;58.75
2841;BME280;53423;49.224;12.074;2023-04-30T05:46:56;98150.53;;;13.91;57.42
2841;BME280;53423;49.224;12.074;2023-04-30T05:49:25;98150.50;;;14.21;57.13
2841;BME280;53423;49.224;12.074;2023-04-30T05:51:53;98149.97;;;14.71;55.57
2841;BME280;53423;49.224;12.074;2023-04-30T05:54:21;98152.53;;;14.79;55.26
2841;BME280;53423;49.224;12.074;2023-04-30T05:56:49;98141.75;;;16.33;51.00
2841;BME280;53423;49.224;12.074;2023-04-30T05:59:17;98149.56;;;15.84;51.10
2841;BME280;53423;49.224;12.074;2023-04-30T06:01:46;98151.16;;;15.64;52.93
2841;BME280;53423;49.224;12.074;2023-04-30T06:04:14;98151.88;;;16.71;49.89
2841;BME280;53423;49.224;12.074;2023-04-30T06:06:43;98151.25;;;17.24;47.77
2841;BME280;53423;49.224;12.074;2023-04-30T06:09:11;98146.09;;;17.91;45.82
2841;BME280;53423;49.224;12.074;2023-04-30T06:11:39;98145.75;;;18.07;44.90
2841;BME280;53423;49.224;12.074;2023-04-30T06:14:09;98148.69;;;17.72;45.58
2841;BME280;53423;49.224;12.074;2023-04-30T06:16:37;98149.03;;;17.00;47.07
2841;BME280;53423;49.224;12.074;2023-04-30T06:19:06;98152.78;;;17.40;47.05
2841;BME280;53423;49.224;12.074;2023-04-30T06:21:34;98147.69;;;17.38;46.74
2841;BME280;53423;49.224;12.074;2023-04-30T06:24:02;98146.19;;;18.30;44.91
2841;BME280;53423;49.224;12.074;2023-04-30T06:26:31;98146.06;;;18.65;43.17
2841;BME280;53423;49.224;12.074;2023-04-30T06:28:59;98147.97;;;17.97;45.10
2841;BME280;53423;49.224;12.074;2023-04-30T06:31:27;98149.88;;;19.27;41.73
2841;BME280;53423;49.224;12.074;2023-04-30T06:33:55;98155.03;;;19.93;40.19
2841;BME280;53423;49.224;12.074;2023-04-30T06:36:24;98148.88;;;19.15;42.36
2841;BME280;53423;49.224;12.074;2023-04-30T06:38:52;98146.44;;;19.07;41.81
2841;BME280;53423;49.224;12.074;2023-04-30T06:41:20;98151.38;;;19.17;41.27
2841;BME280;53423;49.224;12.074;2023-04-30T06:43:48;98141.56;;;19.04;43.34
2841;BME280;53423;49.224;12.074;2023-04-30T06:46:15;98151.69;;;20.48;38.94
2841;BME280;53423;49.224;12.074;2023-04-30T06:48:43;98144.72;;;20.47;38.13
2841;BME280;53423;49.224;12.074;2023-04-30T06:51:11;98139.19;;;20.17;38.96
2841;BME280;53423;49.224;12.074;2023-04-30T06:53:40;98153.56;;;20.03;39.90
2841;BME280;53423;49.224;12.074;2023-04-30T06:56:08;98155.53;;;18.07;42.50
2841;BME280;53423;49.224;12.074;2023-04-30T06:58:36;98159.16;;;16.06;47.41
2841;BME280;53423;49.224;12.074;2023-04-30T07:01:04;98159.53;;;15.67;48.25
2841;BME280;53423;49.224;12.074;2023-04-30T07:03:33;98160.13;;;16.41;46.50
2841;BME280;53423;49.224;12.074;2023-04-30T07:06:01;98152.72;;;16.30;46.52
2841;BME280;53423;49.224;12.074;2023-04-30T07:08:29;98157.38;;;15.92;48.04
2841;BME280;53423;49.224;12.074;2023-04-30T07:10:58;98148.44;;;17.32;46.05
2841;BME280;53423;49.224;12.074;2023-04-30T07:13:26;98144.47;;;16.88;47.01
2841;BME280;53423;49.224;12.074;2023-04-30T07:15:54;98148.94;;;16.87;46.06
2841;BME280;53423;49.224;12.074;2023-04-30T07:18:22;98140.16;;;18.49;42.87
2841;BME280;53423;49.224;12.074;2023-04-30T07:20:50;98133.91;;;20.42;39.82
2841;BME280;53423;49.224;12.074;2023-04-30T07:23:18;98131.41;;;20.09;39.76
2841;BME280;53423;49.224;12.074;2023-04-30T07:25:46;98141.34;;;19.06;40.67
2841;BME280;53423;49.224;12.074;2023-04-30T07:28:15;98128.47;;;19.35;40.25
2841;BME280;53423;49.224;12.074;2023-04-30T07:30:43;98126.72;;;20.42;38.84
2841;BME280;53423;49.224;12.074;2023-04-30T07:33:11;98130.56;;;21.02;37.90
2841;BME280;53423;49.224;12.074;2023-04-30T07:35:39;98132.22;;;21.03;37.69
2841;BME280;53423;49.224;12.074;2023-04-30T07:38:07;98132.19;;;22.71;35.37
2841;BME280;53423;49.224;12.074;2023-04-30T07:40:35;98134.56;;;23.25;34.21
2841;BME280;53423;49.224;12.074;2023-04-30T07:43:03;98136.56;;;21.58;34.17
2841;BME280;53423;49.224;12.074;2023-04-30T07:45:33;98135.88;;;21.27;34.37
2841;BME280;53423;49.224;12.074;2023-04-30T07:48:01;98129.09;;;22.44;31.03
2841;BME280;53423;49.224;12.074;2023-04-30T07:50:29;98135.31;;;22.68;31.79
2841;BME280;53423;49.224;12.074;2023-04-30T07:53:00;98131.25;;;23.58;28.99
2841;BME280;53423;49.224;12.074;2023-04-30T07:55:28;98143.22;;;21.49;32.83
2841;BME280;53423;49.224;12.074;2023-04-30T07:57:56;98145.75;;;20.08;33.73
2841;BME280;53423;49.224;12.074;2023-04-30T08:00:25;98140.66;;;20.69;34.07
2841;BME280;53423;49.224;12.074;2023-04-30T08:02:56;98141.50;;;21.73;32.74
2841;BME280;53423;49.224;12.074;2023-04-30T08:05:25;98143.09;;;22.69;30.77
2841;BME280;53423;49.224;12.074;2023-04-30T08:07:53;98133.41;;;23.32;29.39
2841;BME280;53423;49.224;12.074;2023-04-30T08:10:20;98129.91;;;23.32;30.16
2841;BME280;53423;49.224;12.074;2023-04-30T08:12:48;98131.66;;;22.51;29.95
2841;BME280;53423;49.224;12.074;2023-04-30T08:15:16;98133.47;;;21.01;32.38
2841;BME280;53423;49.224;12.074;2023-04-30T08:17:48;98145.16;;;19.55;36.11
2841;BME280;53423;49.224;12.074;2023-04-30T08:20:20;98141.19;;;19.71;34.86
2841;BME280;53423;49.224;12.074;2023-04-30T08:22:49;98149.94;;;18.82;38.42
2841;BME280;53423;49.224;12.074;2023-04-30T08:25:17;98148.53;;;18.73;37.93
2841;BME280;53423;49.224;12.074;2023-04-30T08:27:45;98142.78;;;18.89;38.90
2841;BME280;53423;49.224;12.074;2023-04-30T08:30:13;98137.47;;;19.15;37.13
2841;BME280;53423;49.224;12.074;2023-04-30T08:32:41;98135.00;;;19.33;37.64
2841;BME280;53423;49.224;12.074;2023-04-30T08:35:09;98150.25;;;20.08;36.61
2841;BME280;53423;49.224;12.074;2023-04-30T08:37:38;98141.00;;;20.54;35.04
2841;BME280;53423;49.224;12.074;2023-04-30T08:40:07;98127.44;;;23.42;31.28
2841;BME280;53423;49.224;12.074;2023-04-30T08:42:41;98127.38;;;23.77;28.79
2841;BME280;53423;49.224;12.074;2023-04-30T08:45:11;98124.28;;;22.64;28.78
2841;BME280;53423;49.224;12.074;2023-04-30T08:47:40;98132.03;;;23.81;28.65
2841;BME280;53423;49.224;12.074;2023-04-30T08:50:08;98118.38;;;23.43;28.92
2841;BME280;53423;49.224;12.074;2023-04-30T08:52:39;98127.06;;;23.73;29.40
2841;BME280;53423;49.224;12.074;2023-04-30T08:55:08;98128.84;;;23.10;29.47
2841;BME280;53423;49.224;12.074;2023-04-30T08:57:37;98118.44;;;24.39;28.57
2841;BME280;53423;49.224;12.074;2023-04-30T09:00:06;98129.38;;;22.66;27.95
2841;BME280;53423;49.224;12.074;2023-04-30T09:02:38;98128.09;;;21.97;29.23
2841;BME280;53423;49.224;12.074;2023-04-30T09:05:13;98122.84;;;22.21;30.47
2841;BME280;53423;49.224;12.074;2023-04-30T09:07:43;98123.09;;;22.60;28.51
2841;BME280;53423;49.224;12.074;2023-04-30T09:10:15;98124.50;;;22.63;28.89
2841;BME280;53423;49.224;12.074;2023-04-30T09:12:57;98129.34;;;25.15;25.47
2841;BME280;53423;49.224;12.074;2023-04-30T09:15:25;98126.16;;;26.43;24.71
2841;BME280;53423;49.224;12.074;2023-04-30T09:18:05;98117.09;;;27.17;23.60
2841;BME280;53423;49.224;12.074;2023-04-30T09:20:34;98112.03;;;26.84;21.69
2841;BME280;53423;49.224;12.074;2023-04-30T09:23:08;98120.22;;;23.54;27.57
2841;BME280;53423;49.224;12.074;2023-04-30T09:25:40;98123.13;;;24.32;24.74
2841;BME280;53423;49.224;12.074;2023-04-30T09:28:09;98123.47;;;21.14;29.42
2841;BME280;53423;49.224;12.074;2023-04-30T09:30:38;98127.88;;;22.70;28.21
2841;BME280;53423;49.224;12.074;2023-04-30T09:33:06;98120.59;;;23.34;25.51
2841;BME280;53423;49.224;12.074;2023-04-30T09:35:39;98120.56;;;22.36;27.45
2841;BME280;53423;49.224;12.074;2023-04-30T09:38:24;98125.72;;;22.07;26.79
2841;BME280;53423;49.224;12.074;2023-04-30T09:40:52;98126.47;;;21.96;26.71
2841;BME280;53423;49.224;12.074;2023-04-30T09:43:20;98120.25;;;21.30;28.02
2841;BME280;53423;49.224;12.074;2023-04-30T09:45:48;98140.38;;;19.77;32.51
2841;BME280;53423;49.224;12.074;2023-04-30T09:48:17;98132.56;;;18.99;33.81
2841;BME280;53423;49.224;12.074;2023-04-30T09:50:47;98131.00;;;19.61;31.85
2841;BME280;53423;49.224;12.074;2023-04-30T09:53:17;98123.94;;;19.36;32.85
2841;BME280;53423;49.224;12.074;2023-04-30T09:55:48;98125.84;;;18.64;33.82
2841;BME280;53423;49.224;12.074;2023-04-30T09:58:17;98127.25;;;18.86;34.34
2841;BME280;53423;49.224;12.074;2023-04-30T10:00:46;98127.00;;;19.33;34.37
2841;BME280;53423;49.224;12.074;2023-04-30T10:03:15;98127.00;;;18.35;35.33
2841;BME280;53423;49.224;12.074;2023-04-30T10:05:44;98127.88;;;18.88;34.45
2841;BME280;53423;49.224;12.074;2023-04-30T10:08:22;98131.75;;;18.46;35.84
2841;BME280;53423;49.224;12.074;2023-04-30T10:10:56;98124.59;;;18.92;34.57
2841;BME280;53423;49.224;12.074;2023-04-30T10:13:27;98126.81;;;19.34;33.92
2841;BME280;53423;49.224;12.074;2023-04-30T10:16:00;98118.88;;;20.23;33.30
2841;BME280;53423;49.224;12.074;2023-04-30T10:18:33;98117.94;;;20.91;32.08
2841;BME280;53423;49.224;12.074;2023-04-30T10:21:02;98115.53;;;19.90;33.10
2841;BME280;53423;49.224;12.074;2023-04-30T10:23:37;98114.94;;;19.37;32.59
2841;BME280;53423;49.224;12.074;2023-04-30T10:26:07;98114.38;;;20.97;29.80
2841;BME280;53423;49.224;12.074;2023-04-30T10:28:37;98107.88;;;22.61;27.87
2841;BME280;53423;49.224;12.074;2023-04-30T10:31:06;98098.28;;;22.00;30.68
2841;BME280;53423;49.224;12.074;2023-04-30T10:33:42;98095.50;;;21.23;30.41
2841;BME280;53423;49.224;12.074;2023-04-30T10:36:23;98092.53;;;21.31;30.35
2841;BME280;53423;49.224;12.074;2023-04-30T10:38:54;98095.50;;;21.41;31.83
2841;BME280;53423;49.224;12.074;2023-04-30T10:41:25;98082.56;;;23.09;26.07
2841;BME280;53423;49.224;12.074;2023-04-30T10:43:55;98088.69;;;23.84;27.07
2841;BME280;53423;49.224;12.074;2023-04-30T10:46:27;98083.13;;;22.77;27.63
2841;BME280;53423;49.224;12.074;2023-04-30T10:48:55;98069.22;;;24.95;21.78
2841;BME280;53423;49.224;12.074;2023-04-30T10:51:44;98062.88;;;25.60;22.93
2841;BME280;53423;49.224;12.074;2023-04-30T10:54:14;98070.72;;;27.05;21.03
2841;BME280;53423;49.224;12.074;2023-04-30T10:56:44;98061.88;;;27.61;18.36
2841;BME280;53423;49.224;12.074;2023-04-30T10:59:14;98059.16;;;27.05;19.48
2841;BME280;53423;49.224;12.074;2023-04-30T11:01:55;98063.03;;;24.94;22.76
2841;BME280;53423;49.224;12.074;2023-04-30T11:04:24;98060.44;;;23.14;24.17
2841;BME280;53423;49.224;12.074;2023-04-30T11:07:01;98063.38;;;21.66;26.58
2841;BME280;53423;49.224;12.074;2023-04-30T11:09:39;98067.78;;;21.60;26.56
2841;BME280;53423;49.224;12.074;2023-04-30T11:12:13;98062.75;;;21.16;27.25
2841;BME280;53423;49.224;12.074;2023-04-30T11:14:42;98056.75;;;21.03;27.93
2841;BME280;53423;49.224;12.074;2023-04-30T11:17:11;98049.19;;;22.54;27.79
2841;BME280;53423;49.224;12.074;2023-04-30T11:19:46;98052.50;;;22.38;26.15
2841;BME280;53423;49.224;12.074;2023-04-30T11:22:20;98056.59;;;21.16;28.61
2841;BME280;53423;49.224;12.074;2023-04-30T11:25:03;98057.34;;;21.23;27.04
2841;BME280;53423;49.224;12.074;2023-04-30T11:27:33;98047.25;;;21.72;26.18
2841;BME280;53423;49.224;12.074;2023-04-30T11:30:03;98044.69;;;21.66;25.84
2841;BME280;53423;49.224;12.074;2023-04-30T11:32:37;98040.69;;;22.04;25.85
2841;BME280;53423;49.224;12.074;2023-04-30T11:35:06;98048.78;;;20.96;28.66
2841;BME280;53423;49.224;12.074;2023-04-30T11:37:36;98054.88;;;21.39;26.79
2841;BME280;53423;49.224;12.074;2023-04-30T11:40:07;98040.13;;;22.55;25.63
2841;BME280;53423;49.224;12.074;2023-04-30T11:42:37;98036.97;;;22.70;25.39
2841;BME280;53423;49.224;12.074;2023-04-30T11:45:07;98038.25;;;22.67;25.15
2841;BME280;53423;49.224;12.074;2023-04-30T11:47:42;98030.78;;;23.27;24.78
2841;BME280;53423;49.224;12.074;2023-04-30T11:50:12;98032.75;;;22.28;25.73
2841;BME280;53423;49.224;12.074;2023-04-30T11:52:41;98030.34;;;21.96;26.07
2841;BME280;53423;49.224;12.074;2023-04-30T11:55:17;98027.31;;;20.91;28.38
2841;BME280;53423;49.224;12.074;2023-04-30T11:57:47;98025.19;;;20.57;28.27
2841;BME280;53423;49.224;12.074;2023-04-30T12:00:17;98026.94;;;21.24;27.92
2841;BME280;53423;49.224;12.074;2023-04-30T12:02:47;98024.63;;;20.73;28.57
2841;BME280;53423;49.224;12.074;2023-04-30T12:05:16;98030.28;;;21.37;27.42
2841;BME280;53423;49.224;12.074;2023-04-30T12:07:47;98022.38;;;21.13;27.94
2841;BME280;53423;49.224;12.074;2023-04-30T12:10:17;98023.56;;;21.17;27.77
2841;BME280;53423;49.224;12.074;2023-04-30T12:12:46;98025.34;;;20.62;28.73
2841;BME280;53423;49.224;12.074;2023-04-30T12:15:19;98028.69;;;21.00;28.34
2841;BME280;53423;49.224;12.074;2023-04-30T12:17:48;98019.19;;;21.99;28.29
2841;BME280;53423;49.224;12.074;2023-04-30T12:20:16;98018.94;;;21.24;28.87
2841;BME280;53423;49.224;12.074;2023-04-30T12:22:44;98009.03;;;21.78;27.55
2841;BME280;53423;49.224;12.074;2023-04-30T12:25:15;98019.31;;;21.27;30.80
2841;BME280;53423;49.224;12.074;2023-04-30T12:27:47;98015.59;;;21.46;26.99
2841;BME280;53423;49.224;12.074;2023-04-30T12:30:18;98013.97;;;22.57;26.71
2841;BME280;53423;49.224;12.074;2023-04-30T12:32:49;98017.22;;;22.71;26.34
2841;BME280;53423;49.224;12.074;2023-04-30T12:35:18;98010.28;;;22.05;27.10
2841;BME280;53423;49.224;12.074;2023-04-30T12:37:48;98003.75;;;22.77;25.26
2841;BME280;53423;49.224;12.074;2023-04-30T12:40:19;98006.16;;;22.33;25.93
2841;BME280;53423;49.224;12.074;2023-04-30T12:42:48;97997.47;;;21.96;25.74
2841;BME280;53423;49.224;12.074;2023-04-30T12:45:41;97999.28;;;22.25;26.29
2841;BME280;53423;49.224;12.074;2023-04-30T12:48:10;97996.13;;;22.28;24.84
2841;BME280;53423;49.224;12.074;2023-04-30T12:50:38;98003.19;;;22.11;27.34
2841;BME280;53423;49.224;12.074;2023-04-30T12:53:06;97996.81;;;22.12;25.65
2841;BME280;53423;49.224;12.074;2023-04-30T12:55:34;97995.13;;;22.29;27.97
2841;BME280;53423;49.224;12.074;2023-04-30T12:58:07;97991.41;;;22.53;27.01
2841;BME280;53423;49.224;12.074;2023-04-30T13:00:43;97995.91;;;22.30;25.71
2841;BME280;53423;49.224;12.074;2023-04-30T13:03:11;97995.09;;;22.17;25.18
2841;BME280;53423;49.224;12.074;2023-04-30T13:05:39;97992.38;;;21.94;27.19
2841;BME280;53423;49.224;12.074;2023-04-30T13:08:07;97990.19;;;22.14;27.02
2841;BME280;53423;49.224;12.074;2023-04-30T13:10:35;97990.13;;;21.80;27.18
2841;BME280;53423;49.224;12.074;2023-04-30T13:13:03;97976.41;;;21.47;30.16